createdAt,value
2019-04-11T00:00:59.574Z,93698.76
2019-04-11T00:15:50.887Z,93695.56
2019-04-11T00:30:50.566Z,93693.86
2019-04-11T00:45:50.473Z,93697.78
2019-04-11T01:00:51.976Z,93682.03
2019-04-11T01:15:58.627Z,93690.89
2019-04-11T01:30:55.514Z,93692.85
2019-04-11T02:00:58.940Z,93688.52
2019-04-11T02:15:51.208Z,93699.09
2019-04-11T02:30:54.392Z,93699.17
2019-04-11T02:45:58.090Z,93706.97
2019-04-11T03:01:01.038Z,93701.02
2019-04-11T03:16:07.277Z,93714.82
2019-04-11T03:31:21.903Z,93714.98
2019-04-11T03:46:10.958Z,93741.76
2019-04-11T04:00:53.468Z,93759.28
2019-04-11T04:16:04.011Z,93779.64
2019-04-11T04:30:51.685Z,93770.27
2019-04-11T04:46:08.737Z,93780.34
2019-04-11T05:00:53.710Z,93787.95
2019-04-11T05:16:07.353Z,93791.19
2019-04-11T05:30:51.254Z,93795.42
2019-04-11T05:45:53.603Z,93795.12
2019-04-11T06:00:59.659Z,93795.03
2019-04-11T06:15:53.540Z,93795.41
2019-04-11T06:30:59.030Z,93802.75
2019-04-11T07:00:58.035Z,93801.61
2019-04-11T07:15:51.247Z,93817.95
2019-04-11T07:45:55.878Z,93816.04
2019-04-11T08:30:52.539Z,93814.58
2019-04-11T09:00:55.781Z,93814.36
2019-04-11T09:30:56.921Z,93814.16
2019-04-11T09:45:52.794Z,93815.17
2019-04-11T10:00:52.902Z,93808.06
2019-04-11T11:00:52.229Z,93846.91
2019-04-11T11:15:52.163Z,93850.05
2019-04-11T12:00:54.520Z,93850.06
2019-04-11T12:15:55.855Z,93849.22
2019-04-11T12:30:53.118Z,93827.81
2019-04-11T12:45:58.159Z,93808.81
2019-04-11T13:15:55.643Z,93803.16
2019-04-11T14:00:51.235Z,93799.67
2019-04-11T14:15:58.530Z,93794.26
2019-04-11T14:30:52.671Z,93781.46
2019-04-11T14:45:52.543Z,93773.15
2019-04-11T15:00:53.769Z,93762.66
2019-04-11T15:15:55.910Z,93761.59
2019-04-11T15:45:53.735Z,93749.61
2019-04-11T16:00:57.350Z,93758.81
2019-04-11T16:30:51.647Z,93759.65
2019-04-11T17:00:52.646Z,93785.86
2019-04-11T17:15:50.575Z,93800.76
2019-04-11T17:30:55.010Z,93824.40
2019-04-11T17:45:52.545Z,93835.06
2019-04-11T18:00:55.495Z,93867.65
2019-04-11T18:15:50.898Z,93884.05
2019-04-11T18:30:54.674Z,93891.39
2019-04-11T18:45:50.830Z,93904.28
2019-04-11T19:00:57.229Z,93916.09
2019-04-11T19:15:51.125Z,93919.59
2019-04-11T19:30:53.949Z,93922.47
2019-04-11T19:45:58.693Z,93920.55
2019-04-11T20:00:53.040Z,93917.72
2019-04-11T20:15:52.836Z,93915.80
2019-04-11T20:30:53.763Z,93928.88
2019-04-11T20:45:57.927Z,93950.64
2019-04-11T21:00:55.644Z,93946.27
2019-04-11T21:15:50.217Z,93951.99
2019-04-11T21:30:54.099Z,93958.03
2019-04-11T21:45:51.123Z,93952.29
2019-04-11T22:00:57.937Z,93944.08
2019-04-11T22:15:51.105Z,93949.99
2019-04-11T22:30:54.878Z,93934.81
2019-04-11T22:45:50.904Z,93939.80
2019-04-11T23:00:51.745Z,93935.58
2019-04-11T23:15:51.137Z,93929.17
2019-04-11T23:30:51.585Z,93923.66
2019-04-11T23:45:51.821Z,93926.62
